Fort Smith Regional Airport
KFSM : rendu visible

Aérodrome :











RETROUVEZ-NOUS SUR...

 
LOGIN :

S'inscrire | Disclaimer

   EN    FR    IT 

 









Légende :    VFR   VFR Marginal   IFR   IFR Intensif   IFR Très Intensif
Visi : 
Plafond : 
>= 8 km
>= 3000ft
5 à 8 km
1000 à 3000 ft
1500m à 5 km
500 à 1000 ft
800 à 1500m
200 à 500 ft
< 800m
< 200 ft
Symboles :   Orages  Brouillard  Fortes neiges  Fortes précipitations  Vent > 20 kt






- Altitude de l'aérodrome : 469 ft
- Code IATA : FSM


KFSM - Fort Smith Regional

DERNIER METAR :
  • 031653Z 25013KT 4SM R25/5000VP6000FT -RA BR SCT005 BKN008 OVC016 13/12 A3004 RMK AO2 RAB45 CIG 007V011 SLP172 P0000 T01280117

METARs EXPIRÉS :
  • 031553Z 07008KT 10SM OVC007 17/16 A3003 RMK AO2 RAB30E53 SLP164 P0000 T01670156
  • 031453Z 08007KT 10SM BKN005 OVC070 16/15 A3001 RMK AO2 LTG DSNT S SLP160 60009 T01610150 51019
  • 031434Z 07008KT 10SM OVC004 16/15 A3002 RMK AO2 LTG DSNT S T01610150

TAF KFSM
Valide du 03 à 14h jusqu'au 04 à 12h UTC


031420Z 0314/0412 07008KT P6SM -RA SCT008 BKN035
TEMPO 0314/0317 5SM -RA BR BKN008
FM031800 30008G15KT P6SM VCSH OVC007
FM040000 34010KT 5SM BR OVC005



MET'MAP, la Météo Aéronautique d'un coup d'oeil ! - Copyright ORBIFLY Décembre 2007 - Disclaimer

ORBIFLY MET'MAP TEAM :

Programmation & Développement : Alexandra Zaïnal
Sur une idée originale de : Baudouin d'Aumeries
Assistance à la programmation : Marc-Olivier Méhu
Soutien technique & logistique : Manuel Goepfert

Contact : metmap@orbifly.com




SOURCES & CREDITS :

   NOAA       Earth
Advisory